createdAt,value
2018-12-31T00:02:25.653Z,2.77
2018-12-31T00:04:55.286Z,3.00
2018-12-31T00:07:24.978Z,2.97
2018-12-31T00:09:54.722Z,3.07
2018-12-31T00:12:24.432Z,3.03
2018-12-31T00:14:54.112Z,2.73
2018-12-31T00:17:23.745Z,2.60
2018-12-31T00:19:53.722Z,2.50
2018-12-31T00:22:23.402Z,2.53
2018-12-31T00:24:53.074Z,2.10
2018-12-31T00:27:22.722Z,2.00
2018-12-31T00:29:52.397Z,2.00
2018-12-31T00:32:22.047Z,1.60
2018-12-31T00:35:10.685Z,1.57
2018-12-31T00:37:51.381Z,1.40
2018-12-31T00:40:21.422Z,1.20
2018-12-31T00:42:51.051Z,1.10
2018-12-31T00:45:20.696Z,1.00
2018-12-31T00:47:50.365Z,1.20
2018-12-31T00:50:20.016Z,1.30
2018-12-31T00:53:09.509Z,1.33
2018-12-31T00:55:39.167Z,1.10
2018-12-31T00:58:08.881Z,1.10
2018-12-31T01:00:38.583Z,1.00
2018-12-31T01:03:08.231Z,1.00
2018-12-31T01:05:37.879Z,1.20
2018-12-31T01:08:07.543Z,1.03
2018-12-31T01:10:37.289Z,1.00
2018-12-31T01:13:06.921Z,0.90
2018-12-31T01:15:36.613Z,1.00
2018-12-31T01:18:06.227Z,1.10
2018-12-31T01:20:36.059Z,0.70
2018-12-31T01:23:05.738Z,1.00
2018-12-31T01:25:35.368Z,0.90
2018-12-31T01:28:05.067Z,0.90
2018-12-31T01:36:25.153Z,1.13
2018-12-31T01:38:54.815Z,1.37
2018-12-31T01:41:24.480Z,1.10
2018-12-31T01:43:54.166Z,0.90
2018-12-31T01:46:23.790Z,0.90
2018-12-31T01:48:53.411Z,1.40
2018-12-31T01:51:23.179Z,0.97
2018-12-31T01:53:52.798Z,1.10
2018-12-31T01:56:22.450Z,1.17
2018-12-31T01:58:52.266Z,1.10
2018-12-31T02:01:40.867Z,1.10
2018-12-31T02:04:10.530Z,1.23
2018-12-31T02:06:40.163Z,1.57
2018-12-31T02:09:09.789Z,1.00
2018-12-31T02:11:39.617Z,1.40
2018-12-31T02:14:09.255Z,1.40
2018-12-31T02:16:38.884Z,1.23
2018-12-31T02:19:08.564Z,1.13
2018-12-31T02:21:38.625Z,1.20
2018-12-31T02:24:08.323Z,1.20
2018-12-31T02:26:38.413Z,1.30
2018-12-31T02:29:08.088Z,1.60
2018-12-31T02:31:37.854Z,1.77
2018-12-31T02:34:07.546Z,1.70
2018-12-31T02:36:39.873Z,1.60
2018-12-31T02:39:09.526Z,1.60
2018-12-31T02:41:39.191Z,1.63
2018-12-31T02:44:08.910Z,1.77
2018-12-31T02:46:38.518Z,1.67
2018-12-31T02:51:57.057Z,1.57
2018-12-31T02:54:26.732Z,1.57
2018-12-31T02:56:56.369Z,1.90
2018-12-31T02:59:37.849Z,1.90
2018-12-31T03:02:07.570Z,1.60
2018-12-31T03:04:37.195Z,2.10
2018-12-31T03:07:06.876Z,1.93
2018-12-31T03:09:36.509Z,2.10
2018-12-31T03:12:06.252Z,1.97
2018-12-31T03:14:35.933Z,2.10
2018-12-31T03:17:05.565Z,1.83
2018-12-31T03:19:35.187Z,1.63
2018-12-31T03:22:05.048Z,2.20
2018-12-31T03:24:34.740Z,1.90
2018-12-31T03:27:25.624Z,2.17
2018-12-31T03:29:55.258Z,1.60
2018-12-31T03:32:24.903Z,2.07
2018-12-31T03:34:54.617Z,2.00
2018-12-31T03:37:24.455Z,1.97
2018-12-31T03:39:54.107Z,2.00
2018-12-31T03:42:23.752Z,2.07
2018-12-31T03:44:53.372Z,2.30
2018-12-31T03:47:23.202Z,2.27
2018-12-31T03:50:11.750Z,2.07
2018-12-31T03:52:41.387Z,1.93
2018-12-31T03:55:11.056Z,2.10
2018-12-31T03:57:40.702Z,2.13
2018-12-31T04:00:10.471Z,3.27
2018-12-31T04:02:40.135Z,2.13
2018-12-31T04:05:09.804Z,2.03
2018-12-31T04:07:39.654Z,1.83
2018-12-31T04:10:09.302Z,2.10
2018-12-31T04:12:39.056Z,2.00
2018-12-31T04:15:08.674Z,2.30
2018-12-31T04:20:26.858Z,1.97
2018-12-31T04:22:56.831Z,2.17
2018-12-31T04:25:26.547Z,2.40
2018-12-31T04:27:56.229Z,2.20
2018-12-31T04:30:25.847Z,2.40
2018-12-31T04:32:55.481Z,2.30
2018-12-31T04:35:25.183Z,2.87
2018-12-31T04:37:55.104Z,2.27
2018-12-31T04:40:24.717Z,2.50
2018-12-31T04:43:13.223Z,2.60
2018-12-31T04:46:01.739Z,2.30
2018-12-31T04:48:31.472Z,2.00
2018-12-31T04:51:01.135Z,2.80
2018-12-31T04:53:30.796Z,2.80
2018-12-31T04:56:19.290Z,3.00
2018-12-31T04:58:48.923Z,2.60
2018-12-31T05:01:18.692Z,2.40
2018-12-31T05:06:23.697Z,2.40
2018-12-31T05:08:53.345Z,2.30
2018-12-31T05:11:22.963Z,2.43
2018-12-31T05:13:52.940Z,2.40
2018-12-31T05:18:57.585Z,2.30
2018-12-31T05:21:27.218Z,2.43
2018-12-31T05:23:57.445Z,2.43
2018-12-31T05:26:27.072Z,2.60
2018-12-31T05:28:56.765Z,3.20
2018-12-31T05:31:26.394Z,2.57
2018-12-31T05:33:56.050Z,3.03
2018-12-31T05:36:25.717Z,3.10
2018-12-31T05:38:55.537Z,3.30
2018-12-31T05:41:25.175Z,3.43
2018-12-31T05:43:54.837Z,2.93
2018-12-31T05:46:24.485Z,3.10
2018-12-31T05:48:54.129Z,3.10
2018-12-31T05:51:23.891Z,3.57
2018-12-31T05:53:53.518Z,4.63
2018-12-31T05:56:23.154Z,4.33
2018-12-31T05:58:52.825Z,5.10
2018-12-31T06:01:41.395Z,4.90
2018-12-31T06:04:11.274Z,6.87
2018-12-31T06:06:40.999Z,5.53
2018-12-31T06:09:10.731Z,8.47
2018-12-31T06:11:40.416Z,6.93
2018-12-31T06:14:10.345Z,5.63
2018-12-31T06:16:39.972Z,6.03
2018-12-31T06:19:09.648Z,6.40
2018-12-31T06:21:39.292Z,5.37
2018-12-31T06:24:11.674Z,7.97
2018-12-31T06:26:41.343Z,6.90
2018-12-31T06:29:10.983Z,8.67
2018-12-31T06:31:40.646Z,5.10
2018-12-31T06:34:10.345Z,5.13
2018-12-31T06:36:39.974Z,6.10
2018-12-31T06:39:10.029Z,6.10
2018-12-31T06:41:39.744Z,5.77
2018-12-31T06:44:09.386Z,6.87
2018-12-31T06:46:39.033Z,5.43
2018-12-31T06:49:08.730Z,6.43
2018-12-31T06:51:38.420Z,7.07
2018-12-31T06:54:08.091Z,5.63
2018-12-31T06:56:37.784Z,6.40
2018-12-31T06:59:07.428Z,7.97
2018-12-31T07:01:37.081Z,8.20
2018-12-31T07:04:06.784Z,8.80
2018-12-31T07:06:36.584Z,13.27
2018-12-31T07:09:07.715Z,10.43
2018-12-31T07:11:37.393Z,8.17
2018-12-31T07:14:07.023Z,7.53
2018-12-31T07:16:36.659Z,7.03
2018-12-31T07:19:06.357Z,8.93
2018-12-31T07:21:35.991Z,9.30
2018-12-31T07:24:05.644Z,8.87
2018-12-31T07:26:35.520Z,9.40
2018-12-31T07:29:05.180Z,9.20
2018-12-31T07:31:34.820Z,10.13
2018-12-31T07:34:04.484Z,8.03
2018-12-31T07:36:40.928Z,8.83
2018-12-31T07:39:10.609Z,11.50
2018-12-31T07:41:40.334Z,8.93
2018-12-31T07:44:09.973Z,9.73
2018-12-31T07:46:39.675Z,9.17
2018-12-31T07:49:09.304Z,9.43
2018-12-31T07:52:18.100Z,9.73
2018-12-31T07:54:47.737Z,9.80
2018-12-31T07:57:17.379Z,9.03
2018-12-31T07:59:47.042Z,9.47
2018-12-31T08:02:16.683Z,9.20
2018-12-31T08:04:46.377Z,9.00
2018-12-31T08:07:27.530Z,9.87
2018-12-31T08:09:57.220Z,9.13
2018-12-31T08:15:22.095Z,10.03
2018-12-31T08:17:51.726Z,9.53
2018-12-31T08:20:21.367Z,9.43
2018-12-31T08:22:51.026Z,9.17
2018-12-31T08:25:20.670Z,8.30
2018-12-31T08:27:50.482Z,7.20
2018-12-31T08:30:20.177Z,8.33
2018-12-31T08:32:49.809Z,7.10
2018-12-31T08:35:19.469Z,7.07
2018-12-31T08:37:49.130Z,6.30
2018-12-31T08:40:18.799Z,4.57
2018-12-31T08:42:48.657Z,5.63
2018-12-31T08:45:18.344Z,5.17
2018-12-31T08:47:47.965Z,4.80
2018-12-31T08:50:17.602Z,5.03
2018-12-31T08:52:47.333Z,4.33
2018-12-31T08:55:17.010Z,3.90
2018-12-31T08:57:46.742Z,4.07
2018-12-31T09:00:16.524Z,3.90
2018-12-31T09:02:46.171Z,3.63
2018-12-31T09:05:15.790Z,3.63
2018-12-31T09:07:45.459Z,3.50
2018-12-31T09:10:33.978Z,3.00
2018-12-31T09:13:03.826Z,3.40
2018-12-31T09:15:33.501Z,3.17
2018-12-31T09:18:03.253Z,3.47
2018-12-31T09:20:32.931Z,2.90
2018-12-31T09:23:02.561Z,2.60
2018-12-31T09:25:32.183Z,2.67
2018-12-31T09:28:02.241Z,2.73
2018-12-31T09:30:32.012Z,2.70
2018-12-31T09:33:01.682Z,2.43
2018-12-31T09:35:31.424Z,2.40
2018-12-31T09:38:01.122Z,3.10
2018-12-31T09:40:30.772Z,2.60
2018-12-31T09:43:00.595Z,2.40
2018-12-31T09:45:30.252Z,1.97
2018-12-31T09:47:59.915Z,2.37
2018-12-31T09:50:29.576Z,1.53
2018-12-31T09:52:59.214Z,1.83
2018-12-31T09:55:47.742Z,1.80
2018-12-31T09:58:17.426Z,1.90
2018-12-31T10:00:47.075Z,2.20
2018-12-31T10:03:16.836Z,1.63
2018-12-31T10:05:46.493Z,1.43
2018-12-31T10:08:16.131Z,1.53
2018-12-31T10:10:47.565Z,1.40
2018-12-31T10:13:17.776Z,1.87
2018-12-31T10:15:47.450Z,1.77
2018-12-31T10:18:17.204Z,1.67
2018-12-31T10:20:46.830Z,2.53
2018-12-31T10:26:05.135Z,3.10
2018-12-31T10:28:35.211Z,2.93
2018-12-31T10:31:04.890Z,3.10
2018-12-31T10:36:10.252Z,3.60
2018-12-31T10:38:39.980Z,3.97
2018-12-31T10:41:09.614Z,4.20
2018-12-31T10:43:39.285Z,3.50
2018-12-31T10:46:09.057Z,4.40
2018-12-31T10:48:38.716Z,4.47
2018-12-31T10:51:08.375Z,4.07
2018-12-31T10:53:38.097Z,3.90
2018-12-31T10:56:07.772Z,3.47
2018-12-31T10:58:56.412Z,4.00
2018-12-31T11:01:37.165Z,3.83
2018-12-31T11:04:06.847Z,2.67
2018-12-31T11:06:36.621Z,3.27
2018-12-31T11:09:07.564Z,3.30
2018-12-31T11:11:37.355Z,3.67
2018-12-31T11:14:07.002Z,3.13
2018-12-31T11:16:36.645Z,3.20
2018-12-31T11:19:06.789Z,2.47
2018-12-31T11:21:36.455Z,3.27
2018-12-31T11:24:25.275Z,2.30
2018-12-31T11:26:54.954Z,3.00
2018-12-31T11:29:25.026Z,3.27
2018-12-31T11:31:54.727Z,2.73
2018-12-31T11:34:24.339Z,2.70
2018-12-31T11:36:54.775Z,2.27
2018-12-31T11:39:24.499Z,3.10
2018-12-31T11:41:54.136Z,2.63
2018-12-31T11:44:23.775Z,2.17
2018-12-31T11:46:53.516Z,2.20
2018-12-31T11:49:23.171Z,2.40
2018-12-31T11:51:52.849Z,1.97
2018-12-31T11:54:22.576Z,1.90
2018-12-31T11:56:52.171Z,2.03
2018-12-31T11:59:22.079Z,2.30
2018-12-31T12:01:51.814Z,2.23
2018-12-31T12:04:21.501Z,1.90
2018-12-31T12:06:51.163Z,2.77
2018-12-31T12:09:21.030Z,1.90
2018-12-31T12:12:09.871Z,2.53
2018-12-31T12:14:41.429Z,1.90
2018-12-31T12:17:11.076Z,2.13
2018-12-31T12:19:40.716Z,2.10
2018-12-31T12:22:10.450Z,1.83
2018-12-31T12:24:40.101Z,1.80
2018-12-31T12:27:09.780Z,1.90
2018-12-31T12:29:39.918Z,2.03
2018-12-31T12:32:09.545Z,2.20
2018-12-31T12:34:39.175Z,1.60
2018-12-31T12:37:08.895Z,1.20
2018-12-31T12:39:38.549Z,1.80
2018-12-31T12:42:08.191Z,1.10
2018-12-31T12:47:13.370Z,1.50
2018-12-31T12:50:01.902Z,1.33
2018-12-31T12:52:31.558Z,0.90
2018-12-31T12:55:01.183Z,1.10
2018-12-31T12:57:32.583Z,1.23
2018-12-31T13:00:02.252Z,1.07
2018-12-31T13:02:31.877Z,0.80
2018-12-31T13:05:03.739Z,0.90
2018-12-31T13:07:32.963Z,1.20
2018-12-31T13:10:02.611Z,1.17
2018-12-31T13:12:32.502Z,1.00
2018-12-31T13:15:02.114Z,0.70
2018-12-31T13:17:50.586Z,1.00
2018-12-31T13:20:20.218Z,1.00
2018-12-31T13:22:49.941Z,0.80
2018-12-31T13:27:55.300Z,0.60
2018-12-31T13:33:00.034Z,0.90
2018-12-31T13:35:29.808Z,0.80
2018-12-31T13:37:59.448Z,0.90
2018-12-31T13:40:29.109Z,1.10
2018-12-31T13:42:58.817Z,0.97
2018-12-31T13:45:28.459Z,1.50
2018-12-31T13:47:58.109Z,1.10
2018-12-31T13:50:27.868Z,1.57
2018-12-31T13:52:57.586Z,1.53
2018-12-31T13:55:46.342Z,1.20
2018-12-31T13:58:16.015Z,1.60
2018-12-31T14:00:45.681Z,1.50
2018-12-31T14:05:50.908Z,1.20
2018-12-31T14:08:20.571Z,1.53
2018-12-31T14:13:30.907Z,1.30
2018-12-31T14:16:00.537Z,1.57
2018-12-31T14:18:30.164Z,1.30
2018-12-31T14:21:00.015Z,1.10
2018-12-31T14:23:29.707Z,1.80
2018-12-31T14:26:18.204Z,1.50
2018-12-31T14:28:59.053Z,1.60
2018-12-31T14:31:28.951Z,1.50
2018-12-31T14:34:00.883Z,1.43
2018-12-31T14:36:30.583Z,1.37
2018-12-31T14:39:02.007Z,0.97
2018-12-31T14:41:31.674Z,1.00
2018-12-31T14:44:01.417Z,1.27
2018-12-31T14:46:31.185Z,0.87
2018-12-31T14:49:00.691Z,0.93
2018-12-31T14:51:30.418Z,1.23
2018-12-31T14:54:18.900Z,1.63
2018-12-31T14:56:48.568Z,1.10
2018-12-31T14:59:19.923Z,1.53
2018-12-31T15:01:49.649Z,1.43
2018-12-31T15:04:19.295Z,1.37
2018-12-31T15:06:48.950Z,0.90
2018-12-31T15:09:18.692Z,1.30
2018-12-31T15:11:48.381Z,1.13
2018-12-31T15:14:18.083Z,1.70
2018-12-31T15:17:06.592Z,1.80
2018-12-31T15:19:37.967Z,0.87
2018-12-31T15:22:07.588Z,1.40
2018-12-31T15:27:13.479Z,1.10
2018-12-31T15:29:43.169Z,1.20
2018-12-31T15:32:12.931Z,1.20
2018-12-31T15:34:42.660Z,1.00
2018-12-31T15:37:32.905Z,1.13
2018-12-31T15:40:02.538Z,1.00
2018-12-31T15:42:32.221Z,1.10
2018-12-31T15:45:01.953Z,1.20
2018-12-31T15:50:20.203Z,1.10
2018-12-31T15:52:49.841Z,1.50
2018-12-31T15:55:19.613Z,1.30
2018-12-31T15:57:49.314Z,1.30
2018-12-31T16:00:20.676Z,1.50
2018-12-31T16:02:50.310Z,1.50
2018-12-31T16:05:20.056Z,1.47
2018-12-31T16:07:49.681Z,1.63
2018-12-31T16:10:19.315Z,1.67
2018-12-31T16:12:49.007Z,1.70
2018-12-31T16:15:18.718Z,1.47
2018-12-31T16:17:48.360Z,1.57
2018-12-31T16:20:18.007Z,2.00
2018-12-31T16:22:47.645Z,1.70
2018-12-31T16:25:17.315Z,1.77
2018-12-31T16:27:46.939Z,1.87
2018-12-31T16:30:16.581Z,1.93
2018-12-31T16:32:46.296Z,1.50
2018-12-31T16:35:35.306Z,1.27
2018-12-31T16:38:04.922Z,1.70
2018-12-31T16:40:34.561Z,1.70
2018-12-31T16:45:59.423Z,1.77
2018-12-31T16:48:29.076Z,1.20
2018-12-31T16:51:17.682Z,2.00
2018-12-31T16:53:47.309Z,2.13
2018-12-31T16:56:16.940Z,2.40
2018-12-31T16:58:46.677Z,2.20
2018-12-31T17:01:16.320Z,1.60
2018-12-31T17:03:46.148Z,2.00
2018-12-31T17:06:34.689Z,1.40
2018-12-31T17:12:13.213Z,2.40
2018-12-31T17:14:42.831Z,2.70
2018-12-31T17:17:14.349Z,1.80
2018-12-31T17:20:02.960Z,1.90
2018-12-31T17:22:32.647Z,0.83
2018-12-31T17:25:02.306Z,2.23
2018-12-31T17:27:31.921Z,1.80
2018-12-31T17:30:01.592Z,2.20
2018-12-31T17:32:31.217Z,2.57
2018-12-31T17:35:01.026Z,2.20
2018-12-31T17:37:30.999Z,1.90
2018-12-31T17:40:00.612Z,2.10
2018-12-31T17:42:30.260Z,1.80
2018-12-31T17:44:59.910Z,2.10
2018-12-31T17:47:29.556Z,0.90
2018-12-31T17:50:00.909Z,2.03
2018-12-31T17:52:30.581Z,2.10
2018-12-31T17:55:00.213Z,2.57
2018-12-31T17:57:29.869Z,2.23
2018-12-31T17:59:59.550Z,2.33
2018-12-31T18:02:29.365Z,2.33
2018-12-31T18:04:59.093Z,2.03
2018-12-31T18:07:28.751Z,2.27
2018-12-31T18:09:58.384Z,2.70
2018-12-31T18:12:28.089Z,2.50
2018-12-31T18:14:57.770Z,2.53
2018-12-31T18:17:27.387Z,2.93
2018-12-31T18:19:58.845Z,2.30
2018-12-31T18:22:28.674Z,2.23
2018-12-31T18:24:58.308Z,2.50
2018-12-31T18:27:27.951Z,2.27
2018-12-31T18:29:57.676Z,2.67
2018-12-31T18:32:27.334Z,2.47
2018-12-31T18:34:57.145Z,2.90
2018-12-31T18:37:28.600Z,2.57
2018-12-31T18:39:58.359Z,2.63
2018-12-31T18:42:27.947Z,2.23
2018-12-31T18:44:57.675Z,15.77
2018-12-31T18:50:41.862Z,2.80
2018-12-31T18:53:11.482Z,2.97
2018-12-31T18:55:41.086Z,1.60
2018-12-31T18:58:10.762Z,3.37
2018-12-31T19:00:40.382Z,3.10
2018-12-31T19:03:10.031Z,2.20
2018-12-31T19:05:39.983Z,2.90
2018-12-31T19:08:09.617Z,3.47
2018-12-31T19:10:39.250Z,3.33
2018-12-31T19:13:08.911Z,14.77
2018-12-31T19:15:38.544Z,3.50
2018-12-31T19:18:08.156Z,4.40
2018-12-31T19:20:38.144Z,3.33
2018-12-31T19:23:26.565Z,3.70
2018-12-31T19:25:56.235Z,3.50
2018-12-31T19:28:27.617Z,3.47
2018-12-31T19:30:57.264Z,4.43
2018-12-31T19:33:26.906Z,4.30
2018-12-31T19:35:56.545Z,3.43
2018-12-31T19:38:26.372Z,4.03
2018-12-31T19:40:56.068Z,6.47
2018-12-31T19:43:25.686Z,4.97
2018-12-31T19:45:55.319Z,2.60
2018-12-31T19:48:24.963Z,5.23
2018-12-31T19:50:54.601Z,6.53
2018-12-31T19:53:24.358Z,5.07
2018-12-31T19:55:54.124Z,5.77
2018-12-31T19:58:23.853Z,5.47
2018-12-31T20:00:53.483Z,6.43
2018-12-31T20:03:23.192Z,6.50
2018-12-31T20:05:53.278Z,6.90
2018-12-31T20:08:22.934Z,7.67
2018-12-31T20:13:27.668Z,8.47
2018-12-31T20:15:59.064Z,6.60
2018-12-31T20:18:28.719Z,7.80
2018-12-31T20:20:58.366Z,8.30
2018-12-31T20:23:28.227Z,3.03
2018-12-31T20:25:58.008Z,6.50
2018-12-31T20:28:29.312Z,7.80
2018-12-31T20:30:58.984Z,7.00
2018-12-31T20:33:28.654Z,7.37
2018-12-31T20:35:58.309Z,7.80
2018-12-31T20:38:28.000Z,7.93
2018-12-31T20:41:01.903Z,4.03
2018-12-31T20:43:31.527Z,9.13
2018-12-31T20:46:01.212Z,9.37
2018-12-31T20:48:30.850Z,8.83
2018-12-31T20:51:00.513Z,8.80
2018-12-31T20:53:32.203Z,8.43
2018-12-31T20:56:02.082Z,6.40
2018-12-31T20:58:31.709Z,9.07
2018-12-31T21:01:01.442Z,8.37
2018-12-31T21:03:31.090Z,8.00
2018-12-31T21:08:51.260Z,8.23
2018-12-31T21:11:20.890Z,12.63
2018-12-31T21:13:50.562Z,10.43
2018-12-31T21:16:20.265Z,14.77
2018-12-31T21:19:08.959Z,15.73
2018-12-31T21:21:38.644Z,13.13
2018-12-31T21:24:08.518Z,9.00
2018-12-31T21:26:38.448Z,8.80
2018-12-31T21:29:27.482Z,8.13
2018-12-31T21:31:58.445Z,7.80
2018-12-31T21:34:28.062Z,7.47
2018-12-31T21:36:57.755Z,8.93
2018-12-31T21:39:27.433Z,11.60
2018-12-31T21:41:57.304Z,9.37
2018-12-31T21:44:27.011Z,12.30
2018-12-31T21:46:56.665Z,10.90
2018-12-31T21:49:26.304Z,8.83
2018-12-31T21:52:14.788Z,9.03
2018-12-31T21:54:45.000Z,9.57
2018-12-31T21:57:14.825Z,9.97
2018-12-31T21:59:44.544Z,8.50
2018-12-31T22:02:14.174Z,7.43
2018-12-31T22:04:43.807Z,7.60
2018-12-31T22:07:15.203Z,7.67
2018-12-31T22:09:47.049Z,7.57
2018-12-31T22:15:08.225Z,6.07
2018-12-31T22:17:37.861Z,7.90
2018-12-31T22:20:09.146Z,7.93
2018-12-31T22:22:38.832Z,7.47
2018-12-31T22:27:57.547Z,5.10
2018-12-31T22:30:27.176Z,4.10
2018-12-31T22:32:56.786Z,4.83
2018-12-31T22:35:26.518Z,5.40
2018-12-31T22:37:56.148Z,9.03
2018-12-31T22:40:25.814Z,6.00
2018-12-31T22:42:55.876Z,4.10
2018-12-31T22:45:25.541Z,4.63
2018-12-31T22:47:55.154Z,3.37
2018-12-31T22:50:24.859Z,4.63
2018-12-31T22:52:54.486Z,4.70
2018-12-31T22:55:24.206Z,5.03
2018-12-31T22:57:53.885Z,7.03
2018-12-31T23:00:30.101Z,9.23
2018-12-31T23:02:59.786Z,22.87
2018-12-31T23:05:30.971Z,21.20
2018-12-31T23:08:00.615Z,33.17
2018-12-31T23:13:05.572Z,48.33
2018-12-31T23:15:37.210Z,50.47
2018-12-31T23:18:06.965Z,46.07
2018-12-31T23:20:36.621Z,44.83
2018-12-31T23:23:06.304Z,28.87
2018-12-31T23:25:36.039Z,32.33
2018-12-31T23:28:05.954Z,28.07
2018-12-31T23:30:35.630Z,19.30
2018-12-31T23:33:05.275Z,17.10
2018-12-31T23:35:34.914Z,19.83
2018-12-31T23:38:04.629Z,22.53
2018-12-31T23:40:36.027Z,19.97
2018-12-31T23:43:06.672Z,26.77
2018-12-31T23:45:37.532Z,30.93
2018-12-31T23:48:07.160Z,27.90
2018-12-31T23:50:36.787Z,34.27
2018-12-31T23:53:06.480Z,34.53
2018-12-31T23:55:55.086Z,27.97
2018-12-31T23:58:24.794Z,23.07
